Airfield :
LOGIN :

Register | Disclaimer

   EN    FR    IT 

 










Legend :    VFR   Marginal VFR   IFR   Intensive IFR   Very Intensive IFR
Visi :
Ceiling :
>= 8 km
>= 3000ft
5 to 8 km
1000 to 3000 ft
1500m to 5 km
500 to 1000 ft
800 to 1500m
200 to 500 ft
< 800m
< 200 ft
Symbols :   Thunderstorms  Fog  Heavy snow  Heavy precipitations  Wind > 20 kt
SIGMETs :     Misc.  Thunderstorms  Icing  Turbulence  Mountain Waves  Volcanic Ashes






- Airport Elevation : 135 ft
- IATA code : EDI


EGPH - Edinburgh

CURRENT METAR :
  • 301350Z 17006KT 130V200 9999 BKN021 BKN047 14/11 Q0995

EXPIRED METARs :
  • 301320Z 17008KT 9999 FEW017 BKN023 14/11 Q0995
  • 301250Z 15004KT 120V200 9999 BKN019 14/11 Q0996
  • 301220Z 16005KT 110V220 9999 -RA SCT020 BKN035 13/11 Q0996
  • 301150Z 16009KT 9999 -RA BKN048 13/10 Q0996

TAF TAF EGPH
Valid from the 30 at 12:00 until the 01 at 12:00 UTC


301053Z 3012/0112 17012KT 9999 SCT045
PROB40
TEMPO 3012/3014 17018G30KT 6000 RA BKN012
TEMPO 3014/0106 6000 RA SHRA BKN010
BECMG 3015/3018 24007KT
PROB30
TEMPO 3015/0106 3000 RADZ +RA BKN006
PROB30
TEMPO 0106/0109 6000 -RADZ BKN012
ATIS : +44 131 339 2823



MET'MAP, your aeronautical weather chart ! - Copyright ORBIFLY December 2007 - Disclaimer

ORBIFLY MET'MAP TEAM :

Programming & Development : Alexandra Zaïnal
Concept & original design : Baudouin d'Aumeries
Assistance for programming : Marc-Olivier Méhu
Technical & hardware support : Manuel Goepfert

Contact : metmap@orbifly.com




SOURCES & CREDITS :

   NOAA